createdAt,value
2018-12-03T00:00:02.029Z,16.37
2018-12-03T00:02:32.001Z,19.83
2018-12-03T00:05:03.502Z,24.23
2018-12-03T00:07:33.857Z,15.43
2018-12-03T00:10:04.808Z,17.07
2018-12-03T00:12:36.165Z,28.47
2018-12-03T00:15:08.932Z,20.02
2018-12-03T00:17:38.925Z,19.40
2018-12-03T00:20:11.195Z,18.85
2018-12-03T00:22:41.698Z,20.30
2018-12-03T00:25:11.719Z,24.63
2018-12-03T00:27:42.118Z,22.20
2018-12-03T00:30:12.141Z,15.85
2018-12-03T00:32:41.847Z,20.93
2018-12-03T00:35:11.769Z,21.42
2018-12-03T00:37:43.365Z,19.98
2018-12-03T00:40:13.543Z,22.90
2018-12-03T00:42:43.756Z,16.83
2018-12-03T00:45:14.127Z,16.67
2018-12-03T00:47:43.689Z,18.17
2018-12-03T00:50:14.056Z,25.57
2018-12-03T00:52:44.420Z,19.90
2018-12-03T00:55:14.832Z,19.17
2018-12-03T00:57:45.090Z,21.93
2018-12-03T01:00:14.696Z,21.27
2018-12-03T01:02:45.710Z,23.18
2018-12-03T01:05:15.287Z,16.90
2018-12-03T01:07:45.403Z,21.55
2018-12-03T01:10:15.456Z,16.87
2018-12-03T01:12:45.164Z,24.20
2018-12-03T01:15:15.957Z,22.22
2018-12-03T01:17:45.701Z,20.10
2018-12-03T01:20:15.932Z,17.70
2018-12-03T01:22:45.518Z,19.07
2018-12-03T01:25:15.524Z,19.90
2018-12-03T01:27:45.296Z,26.57
2018-12-03T01:30:15.231Z,18.33
2018-12-03T01:32:45.015Z,19.90
2018-12-03T01:35:14.959Z,17.82
2018-12-03T01:37:44.783Z,21.00
2018-12-03T01:40:15.503Z,20.60
2018-12-03T01:42:45.446Z,20.27
2018-12-03T01:45:15.174Z,17.83
2018-12-03T01:47:45.098Z,20.23
2018-12-03T01:50:16.350Z,26.63
2018-12-03T01:52:46.572Z,22.07
2018-12-03T01:55:16.691Z,20.77
2018-12-03T01:57:46.689Z,24.20
2018-12-03T02:00:20.841Z,17.48
2018-12-03T02:02:51.411Z,18.73
2018-12-03T02:05:21.773Z,24.30
2018-12-03T02:07:51.998Z,25.05
2018-12-03T02:10:23.376Z,25.80
2018-12-03T02:12:53.509Z,24.83
2018-12-03T02:15:24.174Z,27.30
2018-12-03T02:17:54.023Z,19.57
2018-12-03T02:20:24.741Z,21.30
2018-12-03T02:22:55.690Z,23.37
2018-12-03T02:25:26.739Z,23.10
2018-12-03T02:27:57.526Z,27.33
2018-12-03T02:30:32.162Z,28.73
2018-12-03T02:33:02.061Z,32.13
2018-12-03T02:35:32.378Z,24.93
2018-12-03T02:38:02.412Z,22.90
2018-12-03T02:40:32.414Z,24.63
2018-12-03T02:43:02.127Z,28.00
2018-12-03T02:45:32.271Z,24.45
2018-12-03T02:48:02.357Z,29.30
2018-12-03T02:50:32.106Z,21.55
2018-12-03T02:53:02.272Z,22.97
2018-12-03T02:55:33.240Z,25.53
2018-12-03T02:58:02.645Z,23.57
2018-12-03T03:00:32.974Z,26.20
2018-12-03T03:03:02.940Z,33.77
2018-12-03T03:05:32.536Z,30.97
2018-12-03T03:08:03.151Z,26.93
2018-12-03T03:10:33.016Z,26.90
2018-12-03T03:13:02.537Z,30.37
2018-12-03T03:15:32.542Z,31.53
2018-12-03T03:18:02.085Z,24.87
2018-12-03T03:20:31.544Z,20.83
2018-12-03T03:23:00.930Z,27.53
2018-12-03T03:25:30.232Z,15.77
2018-12-03T03:27:59.509Z,17.67
2018-12-03T03:30:28.745Z,14.33
2018-12-03T03:32:58.029Z,9.53
2018-12-03T03:35:27.198Z,12.00
2018-12-03T03:37:57.448Z,13.83
2018-12-03T03:40:26.964Z,8.83
2018-12-03T03:42:56.486Z,8.73
2018-12-03T03:45:26.438Z,6.57
2018-12-03T03:47:55.737Z,8.67
2018-12-03T03:50:25.180Z,12.40
2018-12-03T03:52:55.160Z,5.67
2018-12-03T03:55:24.664Z,16.80
2018-12-03T03:57:53.858Z,19.07
2018-12-03T04:00:23.130Z,17.47
2018-12-03T04:02:52.455Z,17.17
2018-12-03T04:05:21.980Z,19.33
2018-12-03T04:07:54.559Z,35.07
2018-12-03T04:10:23.686Z,29.23
2018-12-03T04:12:53.575Z,32.27
2018-12-03T04:15:22.857Z,31.60
2018-12-03T04:17:52.148Z,24.93
2018-12-03T04:20:22.175Z,29.20
2018-12-03T04:22:53.719Z,26.90
2018-12-03T04:25:22.875Z,29.13
2018-12-03T04:27:52.537Z,26.20
2018-12-03T04:30:22.672Z,27.50
2018-12-03T04:32:52.889Z,30.27
2018-12-03T04:35:22.920Z,28.47
2018-12-03T04:37:52.493Z,28.70
2018-12-03T04:40:21.929Z,34.70
2018-12-03T04:42:51.237Z,31.47
2018-12-03T04:45:20.902Z,32.60
2018-12-03T04:47:50.850Z,29.93
2018-12-03T04:50:22.771Z,30.53
2018-12-03T04:52:51.951Z,29.57
2018-12-03T04:55:21.587Z,28.90
2018-12-03T04:57:51.132Z,34.40
2018-12-03T05:00:21.643Z,33.17
2018-12-03T05:02:51.925Z,31.07
2018-12-03T05:05:21.741Z,27.47
2018-12-03T05:07:50.789Z,33.13
2018-12-03T05:10:21.675Z,31.93
2018-12-03T05:12:52.159Z,28.77
2018-12-03T05:15:21.484Z,30.43
2018-12-03T05:17:50.930Z,24.67
2018-12-03T05:20:21.639Z,39.73
2018-12-03T05:22:50.706Z,37.03
2018-12-03T05:25:19.948Z,27.57
2018-12-03T05:27:49.262Z,30.37
2018-12-03T05:30:18.929Z,30.53
2018-12-03T05:32:48.582Z,30.53
2018-12-03T05:35:20.104Z,28.30
2018-12-03T05:37:49.411Z,32.73
2018-12-03T05:40:21.543Z,37.33
2018-12-03T05:42:50.623Z,32.43
2018-12-03T05:45:20.203Z,36.10
2018-12-03T05:47:49.764Z,39.97
2018-12-03T05:50:18.874Z,32.77
2018-12-03T05:52:48.746Z,34.77
2018-12-03T05:55:20.079Z,36.20
2018-12-03T05:57:49.579Z,40.80
2018-12-03T06:00:36.489Z,31.20
2018-12-03T06:03:06.254Z,30.27
2018-12-03T06:05:35.389Z,31.30
2018-12-03T06:08:05.163Z,40.07
2018-12-03T06:10:34.841Z,33.60
2018-12-03T06:13:04.420Z,35.80
2018-12-03T06:15:33.678Z,35.60
2018-12-03T06:18:02.946Z,34.17
2018-12-03T06:20:33.214Z,33.50
2018-12-03T06:23:02.304Z,27.93
2018-12-03T06:25:31.948Z,32.47
2018-12-03T06:28:01.681Z,32.10
2018-12-03T06:30:31.269Z,33.10
2018-12-03T06:33:00.554Z,36.03
2018-12-03T06:35:33.249Z,34.40
2018-12-03T06:38:02.429Z,37.70
2018-12-03T06:40:32.296Z,33.17
2018-12-03T06:43:01.509Z,31.73
2018-12-03T06:45:30.855Z,28.47
2018-12-03T06:48:05.732Z,32.50
2018-12-03T06:50:41.803Z,31.00
2018-12-03T06:53:13.866Z,33.33
2018-12-03T06:56:04.277Z,36.87
2018-12-03T07:01:25.513Z,30.87
2018-12-03T07:04:01.682Z,30.37
2018-12-03T07:09:18.879Z,27.77
2018-12-03T07:11:59.356Z,39.73
2018-12-03T07:14:43.036Z,36.90
2018-12-03T07:17:30.679Z,36.30
2018-12-03T07:20:08.782Z,27.90
2018-12-03T07:22:53.854Z,39.10
2018-12-03T07:25:45.441Z,35.77
2018-12-03T07:28:22.582Z,36.33
2018-12-03T07:31:00.465Z,32.57
2018-12-03T07:33:34.877Z,30.90
2018-12-03T07:36:17.888Z,38.25
2018-12-03T07:38:56.692Z,37.47
2018-12-03T07:41:36.345Z,36.10
2018-12-03T07:44:13.318Z,40.67
2018-12-03T07:46:51.212Z,32.73
2018-12-03T07:49:34.892Z,28.93
2018-12-03T07:52:09.066Z,33.37
2018-12-03T07:54:40.506Z,37.87
2018-12-03T07:57:11.838Z,36.47
2018-12-03T07:59:42.007Z,38.27
2018-12-03T08:02:11.739Z,30.33
2018-12-03T08:04:50.093Z,38.10
2018-12-03T08:07:25.838Z,32.03
2018-12-03T08:10:11.026Z,42.47
2018-12-03T08:12:51.327Z,37.23
2018-12-03T08:15:27.673Z,46.40
2018-12-03T08:18:12.218Z,40.40
2018-12-03T08:20:54.693Z,43.60
2018-12-03T08:24:04.081Z,39.70
2018-12-03T08:26:39.443Z,43.60
2018-12-03T08:29:10.116Z,37.57
2018-12-03T08:31:40.591Z,46.33
2018-12-03T08:34:10.956Z,44.87
2018-12-03T08:36:42.271Z,33.53
2018-12-03T08:39:14.076Z,40.63
2018-12-03T08:41:46.203Z,37.00
2018-12-03T08:44:17.363Z,35.83
2018-12-03T08:46:49.532Z,46.70
2018-12-03T08:49:19.950Z,35.80
2018-12-03T08:51:50.352Z,34.73
2018-12-03T08:54:21.366Z,37.70
2018-12-03T08:56:52.791Z,36.10
2018-12-03T08:59:25.388Z,35.70
2018-12-03T09:01:58.057Z,32.07
2018-12-03T09:04:32.996Z,31.97
2018-12-03T09:07:06.919Z,44.90
2018-12-03T09:09:40.340Z,31.10
2018-12-03T09:12:10.760Z,27.70
2018-12-03T09:14:41.524Z,31.60
2018-12-03T09:17:14.879Z,32.57
2018-12-03T09:19:51.400Z,36.33
2018-12-03T09:22:25.354Z,32.50
2018-12-03T09:24:59.730Z,35.60
2018-12-03T09:27:36.052Z,31.60
2018-12-03T09:30:08.312Z,36.03
2018-12-03T09:32:41.009Z,33.90
2018-12-03T09:35:17.746Z,34.30
2018-12-03T09:37:53.070Z,28.07
2018-12-03T09:40:36.497Z,34.83
2018-12-03T09:43:12.424Z,32.93
2018-12-03T09:45:54.668Z,38.43
2018-12-03T09:48:45.561Z,33.00
2018-12-03T09:51:17.725Z,34.33
2018-12-03T09:53:49.945Z,42.70
2018-12-03T09:56:21.782Z,39.90
2018-12-03T09:58:51.972Z,41.77
2018-12-03T10:01:22.736Z,40.70
2018-12-03T10:03:56.526Z,44.73
2018-12-03T10:06:28.477Z,46.13
